createdAt,value
2024-02-08T00:00:23.824Z,1.20
2024-02-08T00:03:16.322Z,1.10
2024-02-08T00:05:48.297Z,1.70
2024-02-08T00:08:20.158Z,1.30
2024-02-08T00:10:52.159Z,1.50
2024-02-08T00:13:24.787Z,1.60
2024-02-08T00:15:58.898Z,0.80
2024-02-08T00:18:31.401Z,1.70
2024-02-08T00:21:03.444Z,1.30
2024-02-08T00:23:38.437Z,1.10
2024-02-08T00:26:10.575Z,2.20
2024-02-08T00:28:44.124Z,0.70
2024-02-08T00:31:16.118Z,0.90
2024-02-08T00:33:49.710Z,1.90
2024-02-08T00:36:22.307Z,2.30
2024-02-08T00:38:54.383Z,1.90
2024-02-08T00:41:26.345Z,1.30
2024-02-08T00:43:58.829Z,1.10
2024-02-08T00:46:31.097Z,1.80
2024-02-08T00:49:03.105Z,1.80
2024-02-08T00:51:36.313Z,0.90
2024-02-08T00:54:09.848Z,1.90
2024-02-08T00:56:43.097Z,1.80
2024-02-08T00:59:17.117Z,1.30
2024-02-08T01:04:22.821Z,1.40
2024-02-08T01:06:56.175Z,1.40
2024-02-08T01:09:28.543Z,1.90
2024-02-08T01:12:03.228Z,1.50
2024-02-08T01:14:35.383Z,0.90
2024-02-08T01:17:07.868Z,2.20
2024-02-08T01:19:40.026Z,1.50
2024-02-08T01:22:12.666Z,2.00
2024-02-08T01:24:45.444Z,1.50
2024-02-08T01:27:22.321Z,0.80
2024-02-08T01:30:01.265Z,1.90
2024-02-08T01:32:33.639Z,1.50
2024-02-08T01:35:08.522Z,1.20
2024-02-08T01:37:41.037Z,2.10
2024-02-08T01:40:18.335Z,3.30
2024-02-08T01:42:50.504Z,0.90
2024-02-08T01:45:32.529Z,1.90
2024-02-08T01:48:12.124Z,1.00
2024-02-08T01:50:54.490Z,2.20
2024-02-08T01:53:29.878Z,1.50
2024-02-08T01:56:04.196Z,3.70
2024-02-08T01:58:37.457Z,1.90
2024-02-08T02:01:09.753Z,1.60
2024-02-08T02:03:43.200Z,2.10
2024-02-08T02:06:16.166Z,1.20
2024-02-08T02:08:55.352Z,3.80
2024-02-08T02:11:32.185Z,4.30
2024-02-08T02:14:04.705Z,3.60
2024-02-08T02:16:36.849Z,1.50
2024-02-08T02:19:10.229Z,6.30
2024-02-08T02:21:42.198Z,2.40
2024-02-08T02:24:14.150Z,3.30
2024-02-08T02:26:48.003Z,1.40
2024-02-08T02:29:25.218Z,1.40
2024-02-08T02:31:57.326Z,3.10
2024-02-08T02:34:32.233Z,1.50
2024-02-08T02:37:06.379Z,1.50
2024-02-08T02:39:38.582Z,2.40
2024-02-08T02:42:10.618Z,2.20
2024-02-08T02:44:42.603Z,0.80
2024-02-08T02:47:15.093Z,0.90
2024-02-08T02:49:47.444Z,1.70
2024-02-08T02:52:19.365Z,1.90
2024-02-08T02:54:51.548Z,1.40
2024-02-08T02:57:23.778Z,1.90
2024-02-08T03:00:00.934Z,1.60
2024-02-08T03:02:33.377Z,1.40
2024-02-08T03:05:07.961Z,0.80
2024-02-08T03:07:43.935Z,2.00
2024-02-08T03:10:16.440Z,2.40
2024-02-08T03:12:48.486Z,2.10
2024-02-08T03:15:21.228Z,0.80
2024-02-08T03:17:54.261Z,1.00
2024-02-08T03:20:31.034Z,1.90
2024-02-08T03:23:03.465Z,0.60
2024-02-08T03:25:41.866Z,1.40
2024-02-08T03:28:13.909Z,0.50
2024-02-08T03:30:46.176Z,2.60
2024-02-08T03:33:18.558Z,1.80
2024-02-08T03:35:54.793Z,1.40
2024-02-08T03:38:26.847Z,0.70
2024-02-08T03:40:59.566Z,1.50
2024-02-08T03:43:34.372Z,0.50
2024-02-08T03:46:09.078Z,1.60
2024-02-08T03:48:47.228Z,2.30
2024-02-08T03:51:20.599Z,1.60
2024-02-08T03:53:54.240Z,2.30
2024-02-08T03:56:28.131Z,2.20
2024-02-08T03:59:11.597Z,1.30
2024-02-08T04:01:46.710Z,1.80
2024-02-08T04:04:23.944Z,1.30
2024-02-08T04:07:16.144Z,2.10
2024-02-08T04:09:53.120Z,1.20
2024-02-08T04:12:42.604Z,2.00
2024-02-08T04:15:33.336Z,1.40
2024-02-08T04:18:24.133Z,0.60
2024-02-08T04:21:10.040Z,2.00
2024-02-08T04:24:01.296Z,0.70
2024-02-08T04:26:50.843Z,1.00
2024-02-08T04:29:40.481Z,0.90
2024-02-08T04:32:30.584Z,1.00
2024-02-08T04:35:22.793Z,1.40
2024-02-08T04:38:13.793Z,1.40
2024-02-08T04:41:15.424Z,0.70
2024-02-08T04:44:04.963Z,1.20
2024-02-08T04:46:57.333Z,1.60
2024-02-08T04:49:48.180Z,0.80
2024-02-08T04:52:37.400Z,1.60
2024-02-08T04:55:11.804Z,1.50
2024-02-08T04:57:43.599Z,1.10
2024-02-08T05:00:17.548Z,1.20
2024-02-08T05:02:50.754Z,1.50
2024-02-08T05:05:22.598Z,2.80
2024-02-08T05:07:55.260Z,1.40
2024-02-08T05:10:29.683Z,2.10
2024-02-08T05:13:06.001Z,1.70
2024-02-08T05:15:38.499Z,0.70
2024-02-08T05:18:13.151Z,1.10
2024-02-08T05:20:49.404Z,1.10
2024-02-08T05:23:21.573Z,3.30
2024-02-08T05:25:54.019Z,1.40
2024-02-08T05:28:27.680Z,2.00
2024-02-08T05:30:59.672Z,1.00
2024-02-08T05:33:32.054Z,1.20
2024-02-08T05:36:08.525Z,1.90
2024-02-08T05:38:42.688Z,1.20
2024-02-08T05:41:17.248Z,1.70
2024-02-08T05:43:52.898Z,0.80
2024-02-08T05:46:30.153Z,2.20
2024-02-08T05:49:06.636Z,2.40
2024-02-08T05:51:39.221Z,1.50
2024-02-08T05:54:11.134Z,1.60
2024-02-08T05:56:44.753Z,3.30
2024-02-08T05:59:18.680Z,1.60
2024-02-08T06:01:54.804Z,2.30
2024-02-08T06:04:27.274Z,2.00
2024-02-08T06:07:06.604Z,3.40
2024-02-08T06:09:56.697Z,2.90
2024-02-08T06:12:45.658Z,2.00
2024-02-08T06:15:27.018Z,3.60
2024-02-08T06:18:05.468Z,2.60
2024-02-08T06:20:42.609Z,2.90
2024-02-08T06:23:25.383Z,1.40
2024-02-08T06:26:14.767Z,2.00
2024-02-08T06:28:49.191Z,2.30
2024-02-08T06:31:21.543Z,3.10
2024-02-08T06:34:29.565Z,1.10
2024-02-08T06:37:17.960Z,1.70
2024-02-08T06:39:58.324Z,1.10
2024-02-08T06:43:06.666Z,2.00
2024-02-08T06:46:10.648Z,1.40
2024-02-08T06:49:11.857Z,2.80
2024-02-08T06:52:01.046Z,2.60
2024-02-08T06:54:50.287Z,1.30
2024-02-08T06:57:39.779Z,1.40
2024-02-08T07:00:31.380Z,2.90
2024-02-08T07:03:20.653Z,2.20
2024-02-08T07:06:10.038Z,1.20
2024-02-08T07:08:59.780Z,3.20
2024-02-08T07:11:48.882Z,2.90
2024-02-08T07:14:38.458Z,2.40
2024-02-08T07:17:28.270Z,2.40
2024-02-08T07:20:18.139Z,2.10
2024-02-08T07:23:07.698Z,2.80
2024-02-08T07:25:57.557Z,2.80
2024-02-08T07:28:47.022Z,4.10
2024-02-08T07:31:36.641Z,3.30
2024-02-08T07:34:26.781Z,2.40
2024-02-08T07:37:19.549Z,2.60
2024-02-08T07:39:55.559Z,3.10
2024-02-08T07:42:33.707Z,1.40
2024-02-08T07:45:06.945Z,3.40
2024-02-08T07:47:39.408Z,2.00
2024-02-08T07:50:12.276Z,3.10
2024-02-08T07:52:48.192Z,3.90
2024-02-08T07:55:42.949Z,4.20
2024-02-08T08:00:51.634Z,3.30
2024-02-08T08:03:25.482Z,2.80
2024-02-08T08:05:58.541Z,2.00
2024-02-08T08:08:33.111Z,2.20
2024-02-08T08:11:08.389Z,2.20
2024-02-08T08:13:58.067Z,4.10
2024-02-08T08:16:38.857Z,4.00
2024-02-08T08:19:11.549Z,4.80
2024-02-08T08:22:20.051Z,4.50
2024-02-08T08:25:14.211Z,1.80
2024-02-08T08:27:54.426Z,3.80
2024-02-08T08:30:32.546Z,3.10
2024-02-08T08:33:30.131Z,3.20
2024-02-08T08:36:06.520Z,3.50
2024-02-08T08:38:46.049Z,4.00
2024-02-08T08:41:20.228Z,2.90
2024-02-08T08:43:55.549Z,3.70
2024-02-08T08:46:27.558Z,3.60
2024-02-08T08:49:05.776Z,2.70
2024-02-08T08:51:37.936Z,3.70
2024-02-08T08:54:20.441Z,3.40
2024-02-08T08:56:53.166Z,4.50
2024-02-08T08:59:27.776Z,4.80
2024-02-08T09:02:02.128Z,4.80
2024-02-08T09:04:37.709Z,4.20
2024-02-08T09:07:13.647Z,4.90
2024-02-08T09:10:03.960Z,3.80
2024-02-08T09:12:40.588Z,4.60
2024-02-08T09:15:28.466Z,4.20
2024-02-08T09:18:10.562Z,4.30
2024-02-08T09:20:43.817Z,1.70
2024-02-08T09:23:17.761Z,3.80
2024-02-08T09:25:50.532Z,2.10
2024-02-08T09:28:27.875Z,3.20
2024-02-08T09:31:05.169Z,2.90
2024-02-08T09:33:48.639Z,3.70
2024-02-08T09:36:21.260Z,2.60
2024-02-08T09:38:53.273Z,1.80
2024-02-08T09:41:26.885Z,1.10
2024-02-08T09:44:00.987Z,1.30
2024-02-08T09:49:19.444Z,3.40
2024-02-08T09:51:56.144Z,3.40
2024-02-08T09:54:31.171Z,2.90
2024-02-08T09:57:23.522Z,2.60
2024-02-08T10:00:07.921Z,3.00
2024-02-08T10:05:46.634Z,2.70
2024-02-08T10:08:30.101Z,1.40
2024-02-08T10:11:25.517Z,2.40
2024-02-08T10:14:03.614Z,2.50
2024-02-08T10:16:49.345Z,3.70
2024-02-08T10:19:49.230Z,3.70
2024-02-08T10:22:28.860Z,2.80
2024-02-08T10:25:18.188Z,2.60
2024-02-08T10:27:59.065Z,2.70
2024-02-08T10:30:31.312Z,2.90
2024-02-08T10:33:06.224Z,2.80
2024-02-08T10:35:41.672Z,3.80
2024-02-08T10:38:31.904Z,3.30
2024-02-08T10:41:13.231Z,2.20
2024-02-08T10:43:53.650Z,2.50
2024-02-08T10:46:26.038Z,3.30
2024-02-08T10:48:58.850Z,2.80
2024-02-08T10:51:31.958Z,3.50
2024-02-08T10:54:16.063Z,3.40
2024-02-08T10:56:51.615Z,3.00
2024-02-08T10:59:41.196Z,2.90
2024-02-08T11:02:33.433Z,2.50
2024-02-08T11:05:23.067Z,2.40
2024-02-08T11:07:55.461Z,2.70
2024-02-08T11:10:34.087Z,2.80
2024-02-08T11:13:12.363Z,2.10
2024-02-08T11:15:51.134Z,2.50
2024-02-08T11:18:35.057Z,2.50
2024-02-08T11:21:14.570Z,2.40
2024-02-08T11:23:52.806Z,2.40
2024-02-08T11:26:27.998Z,2.20
2024-02-08T11:29:19.965Z,2.20
2024-02-08T11:31:52.401Z,1.60
2024-02-08T11:34:35.590Z,1.90
2024-02-08T11:37:20.220Z,1.30
2024-02-08T11:40:10.810Z,2.40
2024-02-08T11:42:43.732Z,1.50
2024-02-08T11:45:23.642Z,2.40
2024-02-08T11:47:57.024Z,1.70
2024-02-08T11:50:37.937Z,1.70
2024-02-08T11:53:10.988Z,1.90
2024-02-08T11:55:46.476Z,1.90
2024-02-08T11:58:18.689Z,2.10
2024-02-08T12:00:51.824Z,2.10
2024-02-08T12:03:24.333Z,2.20
2024-02-08T12:05:58.749Z,2.00
2024-02-08T12:08:37.395Z,1.60
2024-02-08T12:13:46.361Z,1.40
2024-02-08T12:16:18.886Z,1.60
2024-02-08T12:19:01.130Z,1.40
2024-02-08T12:21:33.249Z,1.60
2024-02-08T12:24:05.785Z,1.70
2024-02-08T12:26:40.350Z,1.20
2024-02-08T12:29:19.200Z,1.40
2024-02-08T12:31:55.851Z,2.10
2024-02-08T12:34:34.544Z,2.10
2024-02-08T12:37:08.439Z,1.40
2024-02-08T12:39:44.462Z,2.20
2024-02-08T12:42:19.912Z,2.00
2024-02-08T12:44:52.211Z,2.20
2024-02-08T12:47:24.962Z,2.20
2024-02-08T12:50:08.361Z,2.40
2024-02-08T12:52:43.742Z,3.00
2024-02-08T12:55:24.770Z,2.70
2024-02-08T12:58:04.607Z,1.90
2024-02-08T13:00:39.140Z,2.50
2024-02-08T13:03:12.014Z,2.40
2024-02-08T13:05:46.789Z,2.80
2024-02-08T13:08:25.507Z,3.20
2024-02-08T13:10:58.460Z,2.40
2024-02-08T13:13:30.918Z,3.70
2024-02-08T13:16:11.332Z,3.90
2024-02-08T13:18:49.707Z,3.50
2024-02-08T13:21:26.398Z,4.00
2024-02-08T13:23:58.806Z,3.10
2024-02-08T13:26:36.170Z,3.20
2024-02-08T13:29:13.007Z,3.80
2024-02-08T13:31:46.542Z,3.00
2024-02-08T13:34:28.364Z,3.70
2024-02-08T13:37:01.399Z,3.10
2024-02-08T13:39:34.556Z,3.60
2024-02-08T13:42:06.514Z,4.20
2024-02-08T13:44:38.900Z,3.70
2024-02-08T13:47:14.576Z,3.10
2024-02-08T13:49:50.860Z,4.30
2024-02-08T13:52:29.712Z,4.50
2024-02-08T13:55:03.161Z,4.30
2024-02-08T13:57:35.689Z,3.80
2024-02-08T14:00:11.247Z,3.30
2024-02-08T14:02:43.515Z,3.10
2024-02-08T14:05:19.464Z,3.50
2024-02-08T14:07:55.973Z,3.30
2024-02-08T14:10:33.344Z,3.50
2024-02-08T14:13:10.944Z,3.40
2024-02-08T14:15:48.780Z,2.80
2024-02-08T14:18:33.397Z,3.50
2024-02-08T14:21:09.730Z,3.80
2024-02-08T14:23:44.849Z,4.00
2024-02-08T14:26:34.933Z,3.40
2024-02-08T14:29:07.289Z,3.60
2024-02-08T14:31:41.452Z,3.80
2024-02-08T14:34:15.843Z,3.40
2024-02-08T14:36:51.153Z,2.90
2024-02-08T14:39:34.348Z,3.20
2024-02-08T14:42:13.680Z,3.00
2024-02-08T14:44:46.620Z,3.60
2024-02-08T14:47:23.562Z,3.40
2024-02-08T14:50:02.411Z,3.80
2024-02-08T14:52:45.496Z,3.50
2024-02-08T14:55:27.773Z,3.20
2024-02-08T14:58:02.146Z,3.20
2024-02-08T15:01:00.963Z,3.70
2024-02-08T15:03:38.314Z,3.80
2024-02-08T15:06:27.596Z,3.40
2024-02-08T15:09:28.513Z,3.40
2024-02-08T15:12:02.190Z,3.10
2024-02-08T15:14:38.608Z,3.90
2024-02-08T15:17:12.364Z,3.40
2024-02-08T15:19:48.554Z,3.30
2024-02-08T15:22:41.895Z,3.30
2024-02-08T15:25:18.008Z,3.10
2024-02-08T15:27:55.203Z,3.10
2024-02-08T15:30:38.293Z,3.00
2024-02-08T15:33:30.569Z,3.40
2024-02-08T15:36:12.130Z,4.00
2024-02-08T15:39:01.865Z,3.00
2024-02-08T15:41:52.155Z,4.00
2024-02-08T15:44:36.657Z,3.00
2024-02-08T15:47:14.073Z,3.50
2024-02-08T15:49:46.766Z,4.10
2024-02-08T15:52:23.881Z,3.60
2024-02-08T15:54:58.913Z,3.10
2024-02-08T15:57:34.591Z,3.60
2024-02-08T16:00:29.253Z,4.00
2024-02-08T16:03:03.794Z,3.40
2024-02-08T16:05:46.349Z,5.60
2024-02-08T16:08:18.478Z,3.30
2024-02-08T16:10:51.030Z,3.80
2024-02-08T16:13:35.886Z,4.00
2024-02-08T16:16:09.599Z,4.10
2024-02-08T16:21:20.135Z,3.50
2024-02-08T16:23:55.094Z,3.00
2024-02-08T16:26:32.219Z,3.80
2024-02-08T16:29:09.808Z,4.50
2024-02-08T16:31:44.631Z,3.60
2024-02-08T16:34:27.404Z,4.10
2024-02-08T16:37:05.322Z,4.00
2024-02-08T16:39:56.207Z,3.30
2024-02-08T16:42:36.430Z,3.50
2024-02-08T16:45:19.247Z,2.80
2024-02-08T16:47:57.742Z,3.70
2024-02-08T16:50:46.661Z,3.30
2024-02-08T16:53:23.650Z,3.20
2024-02-08T16:56:00.141Z,3.00
2024-02-08T16:58:39.521Z,2.80
2024-02-08T17:01:23.482Z,3.40
2024-02-08T17:04:18.613Z,2.30
2024-02-08T17:07:00.257Z,2.60
2024-02-08T17:09:45.000Z,4.00
2024-02-08T17:12:28.814Z,3.00
2024-02-08T17:15:21.061Z,3.50
2024-02-08T17:17:55.706Z,3.50
2024-02-08T17:20:39.307Z,4.10
2024-02-08T17:23:18.990Z,4.40
2024-02-08T17:26:02.018Z,4.20
2024-02-08T17:28:37.866Z,4.10
2024-02-08T17:31:23.539Z,5.10
2024-02-08T17:33:58.276Z,4.30
2024-02-08T17:36:34.595Z,5.00
2024-02-08T17:39:09.071Z,5.00
2024-02-08T17:41:44.545Z,5.10
2024-02-08T17:44:17.889Z,4.60
2024-02-08T17:46:54.328Z,4.60
2024-02-08T17:49:26.547Z,4.10
2024-02-08T17:52:01.081Z,6.00
2024-02-08T17:54:46.716Z,5.20
2024-02-08T17:57:25.486Z,4.90
2024-02-08T18:00:00.841Z,4.80
2024-02-08T18:02:37.814Z,5.30
2024-02-08T18:05:15.955Z,6.20
2024-02-08T18:07:48.398Z,6.70
2024-02-08T18:10:22.126Z,5.70
2024-02-08T18:12:57.453Z,8.10
2024-02-08T18:15:36.329Z,7.40
2024-02-08T18:18:08.820Z,8.00
2024-02-08T18:20:42.875Z,8.00
2024-02-08T18:23:20.353Z,9.10
2024-02-08T18:25:53.330Z,8.80
2024-02-08T18:28:27.171Z,9.10
2024-02-08T18:30:59.207Z,8.60
2024-02-08T18:33:34.064Z,8.70
2024-02-08T18:36:09.382Z,10.50
2024-02-08T18:38:43.720Z,12.50
2024-02-08T18:41:21.606Z,13.50
2024-02-08T18:43:54.180Z,13.30
2024-02-08T18:46:29.348Z,12.00
2024-02-08T18:49:03.140Z,11.80
2024-02-08T18:51:35.385Z,13.70
2024-02-08T18:54:15.495Z,12.50
2024-02-08T18:56:47.868Z,13.90
2024-02-08T18:59:20.425Z,11.50
2024-02-08T19:01:57.899Z,11.70
2024-02-08T19:04:37.322Z,11.30
2024-02-08T19:07:12.980Z,11.90
2024-02-08T19:09:45.305Z,11.70
2024-02-08T19:12:19.463Z,10.90
2024-02-08T19:14:53.005Z,14.20
2024-02-08T19:17:26.837Z,13.70
2024-02-08T19:22:33.369Z,11.50
2024-02-08T19:25:05.907Z,11.40
2024-02-08T19:27:39.286Z,11.60
2024-02-08T19:30:14.475Z,10.70
2024-02-08T19:32:47.333Z,10.10
2024-02-08T19:35:23.955Z,11.00
2024-02-08T19:37:56.319Z,9.60
2024-02-08T19:40:31.155Z,11.00
2024-02-08T19:43:06.550Z,10.80
2024-02-08T19:45:43.420Z,10.50
2024-02-08T19:48:20.102Z,10.00
2024-02-08T19:50:52.475Z,11.30
2024-02-08T19:53:29.781Z,11.80
2024-02-08T19:56:09.155Z,11.80
2024-02-08T19:58:44.555Z,13.00
2024-02-08T20:01:18.024Z,12.00
2024-02-08T20:03:53.688Z,12.40
2024-02-08T20:06:28.399Z,12.20
2024-02-08T20:09:01.234Z,11.80
2024-02-08T20:11:34.002Z,12.50
2024-02-08T20:14:08.345Z,11.20
2024-02-08T20:16:43.140Z,12.60
2024-02-08T20:19:16.282Z,13.50
2024-02-08T20:21:51.354Z,12.50
2024-02-08T20:24:24.734Z,12.70
2024-02-08T20:26:57.026Z,11.60
2024-02-08T20:29:29.734Z,14.60
2024-02-08T20:32:02.908Z,13.40
2024-02-08T20:34:40.328Z,12.70
2024-02-08T20:37:15.426Z,11.60
2024-02-08T20:39:48.887Z,10.90
2024-02-08T20:42:25.279Z,12.00
2024-02-08T20:44:59.714Z,12.20
2024-02-08T20:47:32.028Z,11.30
2024-02-08T20:50:05.448Z,12.60
2024-02-08T20:52:39.118Z,11.40
2024-02-08T20:57:52.292Z,9.50
2024-02-08T21:00:31.540Z,11.00
2024-02-08T21:03:06.616Z,9.70
2024-02-08T21:05:41.040Z,9.00
2024-02-08T21:08:13.912Z,10.20
2024-02-08T21:10:48.264Z,10.40
2024-02-08T21:13:21.918Z,9.70
2024-02-08T21:15:55.130Z,10.60
2024-02-08T21:18:29.872Z,11.20
2024-02-08T21:21:03.307Z,10.60
2024-02-08T21:23:36.502Z,11.40
2024-02-08T21:26:16.408Z,11.40
2024-02-08T21:28:52.634Z,10.00
2024-02-08T21:31:24.653Z,12.50
2024-02-08T21:33:58.336Z,12.10
2024-02-08T21:36:30.798Z,11.50
2024-02-08T21:39:02.728Z,12.10
2024-02-08T21:41:34.614Z,10.80
2024-02-08T21:44:08.146Z,10.40
2024-02-08T21:46:42.947Z,10.70
2024-02-08T21:51:51.029Z,11.80
2024-02-08T21:54:23.038Z,14.10
2024-02-08T21:56:55.110Z,11.90
2024-02-08T21:59:29.798Z,13.30
2024-02-08T22:02:02.361Z,12.10
2024-02-08T22:04:34.642Z,12.70
2024-02-08T22:07:08.006Z,13.00
2024-02-08T22:09:40.299Z,12.80
2024-02-08T22:12:17.654Z,9.50
2024-02-08T22:14:50.534Z,12.20
2024-02-08T22:17:22.913Z,12.70
2024-02-08T22:19:55.339Z,11.30
2024-02-08T22:22:27.855Z,11.30
2024-02-08T22:25:01.549Z,12.20
2024-02-08T22:27:35.063Z,9.10
2024-02-08T22:30:11.773Z,12.00
2024-02-08T22:32:45.618Z,11.80
2024-02-08T22:35:18.164Z,10.30
2024-02-08T22:37:51.017Z,10.20
2024-02-08T22:40:24.537Z,11.10
2024-02-08T22:42:57.341Z,11.00
2024-02-08T22:45:31.194Z,11.50
2024-02-08T22:48:04.909Z,13.20
2024-02-08T22:50:37.649Z,12.30
2024-02-08T22:53:11.180Z,11.90
2024-02-08T22:55:43.700Z,10.20
2024-02-08T22:58:15.809Z,10.10
2024-02-08T23:00:51.256Z,10.30
2024-02-08T23:03:26.114Z,11.20
2024-02-08T23:06:00.131Z,11.70
2024-02-08T23:11:02.932Z,10.40
2024-02-08T23:13:35.517Z,10.30
2024-02-08T23:16:09.785Z,9.80
2024-02-08T23:21:12.680Z,9.60
2024-02-08T23:23:45.070Z,8.80
2024-02-08T23:26:17.574Z,10.40
2024-02-08T23:28:50.029Z,11.10
2024-02-08T23:31:22.596Z,11.70
2024-02-08T23:33:55.063Z,12.30
2024-02-08T23:36:27.201Z,11.00
2024-02-08T23:39:00.975Z,11.50
2024-02-08T23:41:33.042Z,10.90
2024-02-08T23:44:05.315Z,11.90
2024-02-08T23:46:40.440Z,11.10
2024-02-08T23:49:12.843Z,12.30
2024-02-08T23:51:44.947Z,12.50
2024-02-08T23:54:16.952Z,9.70
2024-02-08T23:56:49.049Z,10.60
2024-02-08T23:59:21.013Z,9.70
